Time;durP1;ratioP1;P1;durP2;ratioP2;P2;SDS_P1;SDS_P2;PMS_P1;PMS_P2;Temp;Humidity;BMP_temperature;BMP_pressure;BME280_temperature;BME280_humidity;BME280_pressure;Samples;Min_cycle;Max_cycle;Signal;HPM_P1;HPM_P2
2021/09/22 00:02:25;;;;;;;;;;;12.00;99.90;;;10.61;81.46;96744.28;10593562;28;1869;-79
2021/09/22 00:07:30;;;;;;;;;;;11.90;99.90;;;10.61;81.43;96749.66;10592525;27;2165;-79
2021/09/22 00:12:33;;;;;;;;;;;11.70;99.90;;;10.48;83.02;96752.69;10600786;28;2111;-80
2021/09/22 00:17:36;;;;;;;;;;;11.50;99.90;;;10.61;83.17;96752.34;10583197;27;1953;-80
2021/09/22 00:22:39;;;;;;;;;;;11.50;99.90;;;10.54;83.03;96736.38;10597363;28;2102;-79
2021/09/22 00:27:42;;;;;;;;;;;11.50;99.90;;;10.45;83.20;96739.78;10588346;28;2314;-81
2021/09/22 00:32:46;;;;;;;;;;;11.50;99.90;;;10.46;82.61;96750.28;10576758;27;2104;-79
2021/09/22 00:37:49;;;;;;;;;;;11.50;99.90;;;10.40;83.01;96755.81;10602082;27;2135;-79
2021/09/22 00:42:52;;;;;;;;;;;11.40;99.90;;;10.45;82.96;96754.03;10598042;28;1981;-80
2021/09/22 00:47:56;;;;;;;;;;;11.30;99.90;;;10.65;82.25;96740.03;10588420;28;2141;-79
2021/09/22 00:52:59;;;;;;;;;;;11.60;99.90;;;10.69;81.03;96735.78;10596607;27;2073;-80
2021/09/22 00:58:02;;;;;;;;;;;11.60;99.90;;;10.78;80.16;96728.88;10578033;28;2109;-79
2021/09/22 01:03:05;;;;;;;;;;;11.60;99.90;;;10.69;80.96;96734.97;10586312;27;2181;-79
2021/09/22 01:08:09;;;;;;;;;;;11.70;99.90;;;10.66;81.10;96730.88;10577478;27;2225;-80
2021/09/22 01:13:22;;;;;;;;;;;11.50;99.90;;;10.50;83.06;96731.78;10594553;27;2109;-80
2021/09/22 01:18:40;;;;;;;;;;;11.50;99.90;;;10.68;82.80;96730.63;10573058;28;2164;-79
2021/09/22 01:23:46;;;;;;;;;;;11.40;99.90;;;10.43;84.11;96726.59;10578840;28;2185;-80
2021/09/22 01:29:09;;;;;;;;;;;11.50;99.90;;;10.42;84.87;96724.94;10577930;28;2025;-80
2021/09/22 01:34:12;;;;;;;;;;;11.30;99.90;;;10.46;84.65;96718.00;10584866;28;2171;-78
2021/09/22 01:39:15;;;;;;;;;;;11.40;99.90;;;10.47;84.41;96716.94;10582964;27;2166;-79
2021/09/22 01:44:18;;;;;;;;;;;11.40;99.90;;;10.66;83.95;96708.56;10581959;28;2009;-79
2021/09/22 01:49:21;;;;;;;;;;;11.40;99.90;;;10.65;83.35;96701.56;10597698;28;1960;-81
2021/09/22 01:54:24;;;;;;;;;;;11.50;99.90;;;10.40;84.48;96702.88;10597743;28;2033;-79
2021/09/22 01:59:27;;;;;;;;;;;11.40;99.90;;;10.61;83.48;96690.50;10596823;28;1973;-80
2021/09/22 02:04:29;;;;;;;;;;;11.40;99.90;;;10.64;83.05;96700.75;10596021;27;2016;-80
2021/09/22 02:09:32;;;;;;;;;;;11.50;99.90;;;10.50;83.75;96718.34;10599218;27;2178;-80
2021/09/22 02:14:35;;;;;;;;;;;11.50;99.90;;;10.40;85.15;96724.38;10577087;28;2083;-78
2021/09/22 02:19:40;;;;;;;;;;;11.40;99.90;;;10.34;84.99;96729.94;10605296;28;2055;-80
2021/09/22 02:24:44;;;;;;;;;;;11.40;99.90;;;10.27;85.98;96728.25;10612898;28;2248;-79
2021/09/22 02:29:47;;;;;;;;;;;11.20;99.90;;;10.02;87.10;96730.53;10614727;27;2130;-80
2021/09/22 02:34:49;;;;;;;;;;;11.20;99.90;;;9.77;89.03;96732.84;10592709;28;2087;-80
2021/09/22 02:39:55;;;;;;;;;;;10.90;99.90;;;9.61;90.03;96739.84;10605573;28;2072;-80
2021/09/22 02:44:58;;;;;;;;;;;10.80;99.90;;;9.58;90.12;96735.78;10601695;28;1957;-80
2021/09/22 02:50:00;;;;;;;;;;;10.60;99.90;;;9.44;89.92;96740.66;10599316;28;1992;-81
2021/09/22 02:55:03;;;;;;;;;;;10.50;99.90;;;9.77;88.82;96748.94;10583174;28;2041;-81
2021/09/22 03:00:07;;;;;;;;;;;10.60;99.90;;;9.64;89.06;96750.91;10577581;28;2152;-80
2021/09/22 03:05:10;;;;;;;;;;;10.70;99.90;;;9.83;88.75;96738.03;10594406;28;2067;-80
2021/09/22 03:10:13;;;;;;;;;;;10.70;99.90;;;9.90;88.22;96744.06;10606210;28;2126;-80
2021/09/22 03:15:15;;;;;;;;;;;10.80;99.90;;;9.86;88.30;96747.47;10605299;28;1860;-80
2021/09/22 03:20:18;;;;;;;;;;;10.80;99.90;;;10.02;88.03;96746.66;10604076;28;1914;-80
2021/09/22 03:25:21;;;;;;;;;;;10.80;99.90;;;10.07;86.94;96743.25;10607022;27;2206;-80
2021/09/22 03:30:24;;;;;;;;;;;10.90;99.90;;;10.16;86.45;96747.94;10612710;28;2145;-80
2021/09/22 03:35:27;;;;;;;;;;;11.00;99.90;;;10.06;86.49;96763.13;10619883;27;1985;-80
2021/09/22 03:40:30;;;;;;;;;;;11.00;99.90;;;9.97;86.74;96750.06;10601565;27;2052;-80
2021/09/22 03:45:33;;;;;;;;;;;11.00;99.90;;;10.00;86.91;96754.16;10616999;28;1907;-80
2021/09/22 03:50:36;;;;;;;;;;;10.90;99.90;;;10.07;87.26;96751.31;10620112;27;2067;-80
2021/09/22 03:55:39;;;;;;;;;;;11.00;99.90;;;9.89;87.76;96744.31;10611752;28;2009;-78
2021/09/22 04:00:42;;;;;;;;;;;10.90;99.90;;;9.70;89.16;96749.94;10607757;28;2010;-79
2021/09/22 04:05:45;;;;;;;;;;;10.80;99.90;;;9.85;88.38;96748.53;10620523;27;2004;-80
2021/09/22 04:10:47;;;;;;;;;;;10.70;99.90;;;9.87;87.79;96743.75;10621979;27;1974;-80
2021/09/22 04:15:50;;;;;;;;;;;10.70;99.90;;;9.86;87.65;96742.09;10591285;28;2134;-80
2021/09/22 04:20:53;;;;;;;;;;;10.80;99.90;;;9.77;87.78;96743.59;10620673;28;1972;-80
2021/09/22 04:25:56;;;;;;;;;;;10.70;99.90;;;9.84;87.60;96739.66;10608509;28;2036;-79
2021/09/22 04:30:59;;;;;;;;;;;10.80;99.90;;;9.75;87.88;96754.56;10625318;27;1714;-80
2021/09/22 04:36:02;;;;;;;;;;;10.70;99.90;;;9.86;87.25;96742.09;10586506;28;1834;-80
2021/09/22 04:41:05;;;;;;;;;;;10.70;99.90;;;9.80;87.31;96740.41;10612143;28;2002;-79
2021/09/22 04:46:08;;;;;;;;;;;10.80;99.90;;;9.77;87.20;96754.31;10602708;28;2063;-81
2021/09/22 04:51:11;;;;;;;;;;;10.70;99.90;;;9.54;88.52;96756.09;10586401;27;1940;-81
2021/09/22 04:56:14;;;;;;;;;;;10.60;99.90;;;9.33;89.16;96749.56;10620101;27;1864;-81
2021/09/22 05:01:17;;;;;;;;;;;10.40;99.90;;;9.51;88.38;96758.47;10616892;28;1992;-80
2021/09/22 05:06:20;;;;;;;;;;;10.40;99.90;;;9.07;90.62;96750.16;10593813;28;1890;-79
2021/09/22 05:11:24;;;;;;;;;;;10.20;99.90;;;9.41;89.50;96751.84;10588137;28;1917;-78
2021/09/22 05:16:27;;;;;;;;;;;10.20;99.90;;;9.50;88.16;96771.06;10616303;28;2250;-79
2021/09/22 05:21:30;;;;;;;;;;;10.40;99.90;;;9.43;88.51;96775.78;10598875;28;2119;-80
2021/09/22 05:26:33;;;;;;;;;;;10.40;99.90;;;9.41;88.80;96769.81;10612879;27;1955;-80
2021/09/22 05:31:36;;;;;;;;;;;10.40;99.90;;;9.34;88.88;96787.94;10617612;28;1837;-81
2021/09/22 05:36:39;;;;;;;;;;;10.30;99.90;;;9.47;88.92;96768.84;10611687;27;1483;-80
2021/09/22 05:41:42;;;;;;;;;;;10.30;99.90;;;9.75;87.08;96770.69;10614090;27;2103;-80
2021/09/22 05:46:45;;;;;;;;;;;10.50;99.90;;;10.01;85.97;96772.72;10611417;28;2011;-80
2021/09/22 05:51:49;;;;;;;;;;;10.60;99.90;;;10.22;84.95;96781.88;10587376;28;1829;-80
2021/09/22 05:56:51;;;;;;;;;;;10.80;99.90;;;10.35;84.04;96777.25;10594193;27;1833;-80
2021/09/22 06:01:54;;;;;;;;;;;11.10;99.90;;;10.39;84.09;96781.09;10613906;28;1742;-80
2021/09/22 06:06:57;;;;;;;;;;;11.10;99.90;;;10.48;82.67;96776.91;10575436;27;2016;-76
2021/09/22 06:12:00;;;;;;;;;;;11.60;99.90;;;10.48;82.51;96769.66;10554698;27;1853;-76
2021/09/22 06:17:04;;;;;;;;;;;11.30;99.90;;;10.90;79.65;96762.91;10567678;27;1762;-75
2021/09/22 06:22:06;;;;;;;;;;;11.50;99.90;;;10.96;78.40;96769.97;10570833;28;2105;-76
2021/09/22 06:27:13;;;;;;;;;;;11.70;99.90;;;11.02;77.40;96768.97;10560281;27;1989;-75
2021/09/22 06:32:15;;;;;;;;;;;11.90;99.90;;;11.34;76.51;96774.44;10554152;28;2060;-75
2021/09/22 06:37:19;;;;;;;;;;;12.00;99.90;;;11.42;75.73;96773.16;10540937;28;1821;-74
2021/09/22 06:42:22;;;;;;;;;;;12.10;99.90;;;11.46;74.59;96782.38;10558577;28;2118;-76
2021/09/22 06:47:25;;;;;;;;;;;12.30;99.90;;;11.38;75.71;96791.69;10567002;28;2107;-75
2021/09/22 06:52:33;;;;;;;;;;;;;;;11.30;74.08;96784.88;10562419;28;2036;-76
2021/09/22 06:57:38;;;;;;;;;;;;;;;11.52;74.67;96797.50;10539555;28;2114;-76
2021/09/22 07:02:44;;;;;;;;;;;11.90;99.90;;;11.43;72.83;96793.63;10557906;28;1775;-75
2021/09/22 07:07:48;;;;;;;;;;;12.70;99.90;;;11.73;72.29;96793.94;10556073;28;2068;-76
2021/09/22 07:12:52;;;;;;;;;;;12.40;99.90;;;11.35;69.71;96797.59;10562535;28;1993;-76
2021/09/22 07:17:55;;;;;;;;;;;12.50;99.90;;;11.86;69.22;96798.09;10563854;28;1758;-77
2021/09/22 07:22:58;;;;;;;;;;;12.50;99.90;;;12.10;68.63;96801.28;10563319;28;2036;-77
2021/09/22 07:28:01;;;;;;;;;;;12.70;99.90;;;12.39;67.61;96799.84;10550257;28;2273;-77
2021/09/22 07:33:05;;;;;;;;;;;13.00;99.90;;;12.59;66.16;96787.56;10556418;28;2095;-76
2021/09/22 07:38:08;;;;;;;;;;;13.20;99.90;;;12.87;66.05;96789.88;10542435;28;1930;-75
2021/09/22 07:43:11;;;;;;;;;;;13.40;99.90;;;13.10;64.54;96795.88;10559692;28;1983;-77
2021/09/22 07:48:14;;;;;;;;;;;13.70;99.90;;;13.25;63.04;96798.69;10535441;28;2062;-78
2021/09/22 07:53:17;;;;;;;;;;;14.00;99.90;;;13.60;60.07;96797.13;10564769;28;1775;-78
2021/09/22 07:58:20;;;;;;;;;;;14.20;99.90;;;13.42;61.62;96795.75;10566476;28;1983;-79
2021/09/22 08:03:23;;;;;;;;;;;14.10;99.90;;;13.46;59.11;96794.16;10580497;27;2032;-80
2021/09/22 08:08:26;;;;;;;;;;;14.10;99.90;;;13.59;58.71;96809.03;10582904;28;1906;-78
2021/09/22 08:13:28;;;;;;;;;;;14.10;99.90;;;13.52;57.30;96807.38;10565826;27;1916;-78
2021/09/22 08:18:31;;;;;;;;;;;14.20;99.90;;;13.58;55.77;96810.91;10564440;27;1716;-76
2021/09/22 08:23:34;;;;;;;;;;;14.20;99.90;;;13.86;56.10;96817.72;10565679;28;2119;-78
2021/09/22 08:28:37;;;;;;;;;;;14.30;99.90;;;14.22;54.08;96806.91;10590623;27;1901;-81
2021/09/22 08:33:40;;;;;;;;;;;14.50;99.90;;;14.65;52.39;96804.72;10580663;27;2218;-78
2021/09/22 08:38:43;;;;;;;;;;;15.00;99.90;;;15.04;52.33;96802.97;10591337;27;2104;-76
2021/09/22 08:43:46;;;;;;;;;;;15.40;99.90;;;15.43;52.52;96796.84;10566109;28;1746;-78
2021/09/22 08:48:49;;;;;;;;;;;15.80;99.90;;;15.49;50.48;96801.13;10579181;27;1917;-80
2021/09/22 08:53:51;;;;;;;;;;;16.10;99.90;;;15.55;50.93;96801.91;10593572;27;1790;-80
2021/09/22 08:58:54;;;;;;;;;;;16.20;99.90;;;16.02;50.61;96790.50;10621412;27;1810;-82
2021/09/22 09:03:57;;;;;;;;;;;16.40;99.90;;;15.11;50.95;96798.06;10599158;27;1837;-78
2021/09/22 09:09:00;;;;;;;;;;;16.40;99.90;;;15.52;49.02;96797.84;10572038;27;2141;-80
2021/09/22 09:14:03;;;;;;;;;;;16.30;99.90;;;15.50;49.55;96794.63;10547678;28;1988;-81
2021/09/22 09:19:06;;;;;;;;;;;16.30;99.90;;;15.58;47.54;96796.75;10569750;27;2369;-80
2021/09/22 09:24:09;;;;;;;;;;;16.30;99.90;;;16.06;46.47;96797.00;10602912;27;1764;-83
2021/09/22 09:29:12;;;;;;;;;;;16.50;99.90;;;16.48;46.60;96787.41;10598732;28;1953;-82
2021/09/22 09:34:15;;;;;;;;;;;16.80;99.90;;;16.71;45.72;96778.50;10580367;27;2106;-81
2021/09/22 09:39:20;;;;;;;;;;;17.10;99.90;;;15.73;48.03;96792.38;10578369;27;1923;-78
2021/09/22 09:44:23;;;;;;;;;;;16.90;99.90;;;16.26;46.93;96793.28;10595199;27;1931;-79
2021/09/22 09:49:26;;;;;;;;;;;16.90;99.90;;;16.06;46.12;96796.19;10597376;28;2087;-82
2021/09/22 09:54:29;;;;;;;;;;;16.90;99.90;;;16.29;47.17;96784.59;10591333;27;1441;-80
2021/09/22 09:59:32;;;;;;;;;;;16.80;99.90;;;16.67;47.22;96774.72;10598433;27;1944;-77
2021/09/22 10:04:36;;;;;;;;;;;17.00;99.90;;;17.04;46.26;96773.22;10537558;27;2049;-77
2021/09/22 10:09:39;;;;;;;;;;;17.40;99.90;;;16.17;46.93;96782.25;10563426;27;2058;-78
2021/09/22 10:14:44;;;;;;;;;;;17.40;99.90;;;16.08;49.65;96778.53;10566586;28;1941;-76
2021/09/22 10:19:46;;;;;;;;;;;17.00;99.90;;;16.04;49.72;96780.19;10563346;27;1980;-77
2021/09/22 10:24:50;;;;;;;;;;;17.00;99.90;;;16.01;51.85;96783.47;10562929;27;2218;-77
2021/09/22 10:29:57;;;;;;;;;;;16.80;99.90;;;15.63;53.86;96776.97;10557817;28;2409;-77
2021/09/22 10:35:00;;;;;;;;;;;16.60;99.90;;;15.87;52.03;96772.47;10535054;28;2080;-76
2021/09/22 10:40:04;;;;;;;;;;;16.50;99.90;;;15.75;52.65;96776.63;10557924;28;1937;-76
2021/09/22 10:45:07;;;;;;;;;;;16.60;99.90;;;15.97;51.45;96766.16;10554705;28;2336;-77
2021/09/22 10:50:09;;;;;;;;;;;16.70;99.90;;;15.64;53.06;96768.53;10559638;28;2008;-77
2021/09/22 10:55:13;;;;;;;;;;;16.70;99.90;;;15.99;52.98;96763.16;10556645;28;1802;-77
2021/09/22 11:00:16;;;;;;;;;;;16.70;99.90;;;15.82;53.44;96758.13;10558052;28;1943;-78
2021/09/22 11:05:19;;;;;;;;;;;16.60;99.90;;;15.48;55.56;96750.75;10554733;28;2071;-77
2021/09/22 11:10:22;;;;;;;;;;;16.50;99.90;;;15.47;56.13;96754.56;10544010;28;1984;-79
2021/09/22 11:15:24;;;;;;;;;;;16.40;99.90;;;15.74;55.76;96756.84;10549410;28;1968;-78
2021/09/22 11:20:27;;;;;;;;;;;16.60;99.90;;;15.62;56.91;96754.47;10539962;28;1864;-77
2021/09/22 11:25:30;;;;;;;;;;;16.60;99.90;;;15.33;58.19;96748.13;10557787;28;2167;-77
2021/09/22 11:30:33;;;;;;;;;;;16.40;99.90;;;15.56;56.65;96739.31;10558045;28;2016;-78
2021/09/22 11:35:36;;;;;;;;;;;16.50;99.90;;;16.49;55.00;96723.88;10540547;28;2044;-77
2021/09/22 11:40:39;;;;;;;;;;;16.80;99.90;;;16.93;53.96;96723.66;10549275;28;1775;-76
2021/09/22 11:45:43;;;;;;;;;;;17.50;99.90;;;16.99;53.20;96703.50;10563890;28;2064;-75
2021/09/22 11:50:46;;;;;;;;;;;17.60;99.90;;;16.34;56.02;96705.03;10559403;27;2043;-76
2021/09/22 11:55:50;;;;;;;;;;;17.50;99.90;;;16.61;55.16;96694.44;10541872;28;2093;-77
2021/09/22 12:00:52;;;;;;;;;;;17.40;99.90;;;16.95;53.40;96696.22;10551058;27;1885;-75
2021/09/22 12:05:55;;;;;;;;;;;17.60;99.90;;;17.05;52.40;96703.41;10565850;27;1886;-74
2021/09/22 12:10:58;;;;;;;;;;;17.80;99.90;;;17.35;50.87;96685.88;10563838;27;2012;-74
2021/09/22 12:16:01;;;;;;;;;;;17.90;99.90;;;16.54;53.82;96687.72;10533599;27;2240;-73
2021/09/22 12:21:04;;;;;;;;;;;17.80;99.90;;;17.11;51.86;96681.31;10522583;27;2285;-74
2021/09/22 12:26:07;;;;;;;;;;;17.80;99.90;;;16.59;54.09;96680.31;10516536;27;2823;-76
2021/09/22 12:31:10;;;;;;;;;;;17.60;99.90;;;17.70;52.49;96677.19;10536744;28;2261;-76
2021/09/22 12:36:13;;;;;;;;;;;18.00;99.90;;;17.39;50.59;96673.31;10550927;28;2430;-77
2021/09/22 12:41:16;;;;;;;;;;;18.00;99.90;;;17.62;51.04;96674.31;10556591;28;1997;-77
2021/09/22 12:46:19;;;;;;;;;;;18.10;99.90;;;17.55;51.27;96675.50;10553823;27;2250;-76
2021/09/22 12:51:22;;;;;;;;;;;18.20;99.90;;;17.36;51.83;96665.75;10548387;28;2004;-75
2021/09/22 12:56:25;;;;;;;;;;;18.30;99.90;;;17.33;51.31;96667.16;10557185;27;2048;-77
2021/09/22 13:01:28;;;;;;;;;;;18.20;99.90;;;17.14;51.59;96661.72;10584929;28;2043;-77
2021/09/22 13:06:31;;;;;;;;;;;18.10;99.90;;;17.18;52.13;96653.81;10559773;27;2015;-78
2021/09/22 13:11:34;;;;;;;;;;;17.80;99.90;;;17.52;51.78;96653.53;10566246;28;2009;-75
2021/09/22 13:16:39;;;;;;;;;;;17.90;99.90;;;17.69;50.85;96648.38;10535379;28;2035;-77
2021/09/22 13:21:42;;;;;;;;;;;18.20;99.90;;;18.30;49.25;96636.41;10564691;27;1973;-77
2021/09/22 13:26:45;;;;;;;;;;;18.60;99.90;;;18.34;49.94;96634.69;10562767;27;2138;-75
2021/09/22 13:31:48;;;;;;;;;;;18.90;99.90;;;17.53;51.07;96625.25;10563624;28;2103;-75
2021/09/22 13:36:51;;;;;;;;;;;18.70;99.90;;;17.55;51.90;96625.75;10551991;28;2019;-75
2021/09/22 13:41:54;;;;;;;;;;;18.40;99.90;;;17.35;50.78;96628.81;10548609;28;1877;-76
2021/09/22 13:46:57;;;;;;;;;;;18.40;99.90;;;17.84;50.08;96617.41;10564781;28;2045;-76
2021/09/22 13:52:00;;;;;;;;;;;18.50;99.90;;;17.64;49.67;96607.69;10569760;27;2371;-76
2021/09/22 13:57:03;;;;;;;;;;;18.70;99.90;;;17.20;51.05;96614.38;10589073;28;1777;-77
2021/09/22 14:02:06;;;;;;;;;;;18.30;99.90;;;16.97;52.59;96610.63;10563565;27;2160;-78
2021/09/22 14:07:10;;;;;;;;;;;18.00;99.90;;;16.88;52.89;96611.59;10522805;28;2189;-78
2021/09/22 14:12:13;;;;;;;;;;;17.80;99.90;;;16.93;53.82;96609.63;10553468;27;2391;-77
2021/09/22 14:17:15;;;;;;;;;;;17.80;99.90;;;17.06;53.54;96618.94;10577209;27;2421;-75
2021/09/22 14:22:18;;;;;;;;;;;17.90;99.90;;;16.56;53.67;96615.78;10573554;27;1892;-75
2021/09/22 14:27:22;;;;;;;;;;;17.70;99.90;;;15.92;56.42;96600.78;10573285;27;2036;-75
2021/09/22 14:32:25;;;;;;;;;;;17.30;99.90;;;15.65;58.16;96606.75;10543815;28;2023;-75
2021/09/22 14:37:27;;;;;;;;;;;16.90;99.90;;;15.80;57.44;96597.66;10555792;28;1862;-76
2021/09/22 14:42:30;;;;;;;;;;;16.80;99.90;;;16.21;56.72;96593.41;10549906;28;2067;-75
2021/09/22 14:47:34;;;;;;;;;;;16.90;99.90;;;15.74;57.13;96590.69;10568780;28;1580;-77
2021/09/22 14:52:37;;;;;;;;;;;16.90;99.90;;;15.93;56.48;96583.44;10562963;28;2071;-81
2021/09/22 14:57:43;;;;;;;;;;;16.90;99.90;;;15.76;57.65;96596.59;10560026;28;2043;-77
2021/09/22 15:02:49;;;;;;;;;;;16.80;99.90;;;15.93;56.71;96595.06;10568562;28;1821;-78
2021/09/22 15:07:54;;;;;;;;;;;16.90;99.90;;;15.61;57.42;96595.63;10562730;28;1957;-75
2021/09/22 15:12:57;;;;;;;;;;;16.80;99.90;;;15.25;59.91;96591.63;10550790;27;1918;-77
2021/09/22 15:18:00;;;;;;;;;;;16.50;99.90;;;15.55;59.58;96577.81;10566629;27;1981;-77
2021/09/22 15:23:03;;;;;;;;;;;16.50;99.90;;;15.58;60.05;96579.13;10568272;27;2112;-77
2021/09/22 15:28:06;;;;;;;;;;;16.50;99.90;;;15.95;59.55;96570.38;10583486;28;2193;-77
2021/09/22 15:33:11;;;;;;;;;;;16.70;99.90;;;15.76;58.63;96569.50;10562326;28;2069;-77
2021/09/22 15:38:14;;;;;;;;;;;16.80;99.90;;;15.50;58.86;96561.59;10569024;28;2184;-76
2021/09/22 15:43:17;;;;;;;;;;;16.60;99.90;;;15.46;59.33;96582.25;10580899;27;2028;-77
2021/09/22 15:48:20;;;;;;;;;;;16.50;99.90;;;14.96;63.44;96583.47;10605486;27;2001;-76
2021/09/22 15:53:24;;;;;;;;;;;16.20;99.90;;;14.62;65.53;96578.78;10589430;28;2253;-76
2021/09/22 15:58:27;;;;;;;;;;;15.90;99.90;;;14.44;67.20;96579.38;10565129;28;2051;-77
2021/09/22 16:03:30;;;;;;;;;;;15.60;99.90;;;14.22;67.85;96582.47;10576323;27;2044;-77
2021/09/22 16:08:33;;;;;;;;;;;15.40;99.90;;;14.10;68.71;96571.16;10584868;27;2013;-78
2021/09/22 16:13:36;;;;;;;;;;;15.20;99.90;;;14.01;67.80;96574.44;10561283;28;2115;-78
2021/09/22 16:18:40;;;;;;;;;;;15.10;99.90;;;13.98;68.96;96574.97;10562731;28;1985;-76
2021/09/22 16:23:43;;;;;;;;;;;15.00;99.90;;;14.03;69.25;96569.56;10560025;28;2029;-77
2021/09/22 16:28:47;;;;;;;;;;;15.00;99.90;;;14.03;70.45;96579.56;10587734;28;1822;-78
2021/09/22 16:33:51;;;;;;;;;;;15.00;99.90;;;13.89;69.46;96576.63;10544577;27;2201;-76
2021/09/22 16:38:53;;;;;;;;;;;15.00;99.90;;;13.72;70.72;96568.03;10537885;28;2099;-76
2021/09/22 16:43:58;;;;;;;;;;;14.90;99.90;;;13.56;71.61;96574.56;10548394;27;2156;-78
2021/09/22 16:49:02;;;;;;;;;;;14.80;99.90;;;13.44;72.19;96572.16;10562973;28;2178;-77
2021/09/22 16:54:08;;;;;;;;;;;14.60;99.90;;;13.28;74.13;96560.53;10563697;28;2119;-76
2021/09/22 16:59:11;;;;;;;;;;;14.50;99.90;;;13.03;74.79;96555.13;10557499;28;2194;-75
2021/09/22 17:04:14;;;;;;;;;;;14.40;99.90;;;12.93;75.62;96562.13;10537518;28;2207;-77
2021/09/22 17:09:36;;;;;;;;;;;14.20;99.90;;;12.68;77.15;96567.50;10570174;27;2310;-78
2021/09/22 17:14:39;;;;;;;;;;;14.00;99.90;;;12.65;77.17;96574.22;10602592;27;1694;-78
2021/09/22 17:19:49;;;;;;;;;;;13.90;99.90;;;12.63;77.70;96575.59;10564484;28;1627;-76
2021/09/22 17:24:52;;;;;;;;;;;13.80;99.90;;;12.48;79.39;96578.25;10574847;28;2055;-76
2021/09/22 17:29:55;;;;;;;;;;;13.70;99.90;;;12.34;81.37;96578.75;10586736;28;2134;-76
2021/09/22 17:34:58;;;;;;;;;;;13.60;99.90;;;12.23;83.14;96569.00;10578364;28;2075;-77
2021/09/22 17:40:01;;;;;;;;;;;13.50;99.90;;;12.04;83.65;96562.47;10578669;27;2091;-79
2021/09/22 17:45:04;;;;;;;;;;;13.40;99.90;;;11.85;85.79;96571.00;10583476;28;2265;-78
2021/09/22 17:50:07;;;;;;;;;;;13.20;99.90;;;11.78;86.80;96575.78;10585424;28;2072;-77
2021/09/22 17:55:10;;;;;;;;;;;13.00;99.90;;;11.73;86.54;96578.44;10592544;28;2048;-76
2021/09/22 18:00:13;;;;;;;;;;;13.00;99.90;;;11.67;87.82;96573.28;10562192;28;2210;-77
2021/09/22 18:05:16;;;;;;;;;;;12.90;99.90;;;11.48;88.92;96570.22;10564676;28;1948;-77
2021/09/22 18:10:19;;;;;;;;;;;12.80;99.90;;;11.33;89.31;96571.75;10555597;28;1978;-76
2021/09/22 18:15:22;;;;;;;;;;;12.70;99.90;;;11.23;91.16;96566.28;10559978;28;2280;-77
2021/09/22 18:20:25;;;;;;;;;;;12.60;99.90;;;11.24;91.34;96567.91;10580926;28;2304;-77
2021/09/22 18:25:28;;;;;;;;;;;12.50;99.90;;;11.21;90.93;96571.13;10573266;28;2214;-76
2021/09/22 18:30:31;;;;;;;;;;;12.40;99.90;;;11.13;92.63;96568.88;10568378;28;2360;-77
2021/09/22 18:35:34;;;;;;;;;;;12.40;99.90;;;11.05;92.65;96561.28;10565807;28;2410;-77
2021/09/22 18:40:41;;;;;;;;;;;12.40;99.90;;;11.00;93.92;96569.31;10549359;28;2072;-77
2021/09/22 18:45:43;;;;;;;;;;;12.30;99.90;;;10.98;93.73;96566.06;10533866;28;2166;-77
2021/09/22 18:50:47;;;;;;;;;;;12.30;99.90;;;10.91;94.65;96560.09;10551082;28;2075;-76
2021/09/22 18:55:49;;;;;;;;;;;12.20;99.90;;;10.79;95.02;96569.16;10564612;28;2028;-76
2021/09/22 19:00:52;;;;;;;;;;;12.10;99.90;;;10.67;94.26;96559.63;10530153;28;2086;-75
2021/09/22 19:05:56;;;;;;;;;;;12.00;99.90;;;10.57;95.15;96565.72;10557721;28;2099;-76
2021/09/22 19:10:59;;;;;;;;;;;11.90;99.90;;;10.52;97.16;96568.34;10573881;28;2052;-76
2021/09/22 19:16:01;;;;;;;;;;;11.80;99.90;;;10.54;96.91;96568.91;10564017;28;2127;-76
2021/09/22 19:21:04;;;;;;;;;;;11.80;99.90;;;10.46;97.07;96574.75;10544655;28;1873;-77
2021/09/22 19:26:07;;;;;;;;;;;11.70;99.90;;;10.49;97.83;96571.53;10562078;28;2064;-77
2021/09/22 19:31:10;;;;;;;;;;;11.70;99.90;;;10.37;98.06;96565.50;10556006;28;2048;-76
2021/09/22 19:36:13;;;;;;;;;;;11.60;99.90;;;10.39;98.85;96563.38;10454733;28;5227;-77
2021/09/22 19:41:16;;;;;;;;;;;11.60;99.90;;;10.26;98.66;96554.66;10455205;28;1954;-77
2021/09/22 19:46:19;;;;;;;;;;;11.50;99.90;;;10.16;99.08;96551.81;10459901;28;1981;-77
2021/09/22 19:51:23;;;;;;;;;;;11.50;99.90;;;10.12;99.77;96558.75;10447085;28;2057;-76
2021/09/22 19:56:26;;;;;;;;;;;11.40;99.90;;;10.08;99.82;96556.81;10449047;28;2009;-73
2021/09/22 20:01:29;;;;;;;;;;;11.30;99.90;;;10.02;100.00;96566.69;10461131;28;2080;-75
2021/09/22 20:06:34;;;;;;;;;;;11.30;99.90;;;9.90;100.00;96558.75;10458905;28;1978;-74
2021/09/22 20:11:37;;;;;;;;;;;11.20;99.90;;;9.85;100.00;96557.88;10450065;28;2172;-73
2021/09/22 20:16:40;;;;;;;;;;;11.10;99.90;;;9.84;100.00;96556.25;10447645;28;2045;-73
2021/09/22 20:21:43;;;;;;;;;;;11.10;99.90;;;9.84;100.00;96551.69;10446895;28;2092;-76
2021/09/22 20:26:45;;;;;;;;;;;11.00;99.90;;;9.79;100.00;96548.13;10448564;28;2089;-76
2021/09/22 20:31:48;;;;;;;;;;;11.00;99.90;;;9.73;100.00;96544.56;10447275;28;1917;-76
2021/09/22 20:36:52;;;;;;;;;;;11.00;99.90;;;9.69;100.00;96549.63;10446320;28;2002;-77
2021/09/22 20:41:54;;;;;;;;;;;10.90;99.90;;;9.69;100.00;96560.38;10451367;28;1848;-76
2021/09/22 20:46:57;;;;;;;;;;;10.90;99.90;;;9.65;100.00;96553.06;10446083;28;2112;-76
2021/09/22 20:52:01;;;;;;;;;;;10.90;99.90;;;9.57;100.00;96550.81;10448769;28;2539;-76
2021/09/22 20:57:04;;;;;;;;;;;10.80;99.90;;;9.52;100.00;96548.88;10442772;28;2104;-75
2021/09/22 21:02:07;;;;;;;;;;;10.70;99.90;;;9.47;100.00;96540.72;10447672;28;1805;-75
2021/09/22 21:07:12;;;;;;;;;;;10.70;99.90;;;9.38;100.00;96531.50;10446564;28;1958;-75
2021/09/22 21:12:15;;;;;;;;;;;10.70;99.90;;;9.30;100.00;96539.97;10445920;28;2124;-76
2021/09/22 21:17:18;;;;;;;;;;;10.60;99.90;;;9.24;100.00;96546.31;10447041;28;2057;-76
2021/09/22 21:22:21;;;;;;;;;;;10.50;99.90;;;9.17;100.00;96557.22;10445651;28;1896;-75
2021/09/22 21:27:25;;;;;;;;;;;10.50;99.90;;;9.15;100.00;96553.97;10443693;28;2018;-74
2021/09/22 21:32:27;;;;;;;;;;;10.40;99.90;;;9.10;100.00;96557.41;10431241;28;2043;-75
2021/09/22 21:37:30;;;;;;;;;;;10.30;99.90;;;9.03;100.00;96550.53;10437750;28;2069;-76
2021/09/22 21:42:33;;;;;;;;;;;10.30;99.90;;;8.99;100.00;96544.06;10431711;28;1921;-76
2021/09/22 21:47:36;;;;;;;;;;;10.20;99.90;;;8.97;100.00;96547.00;10445748;28;2063;-76
2021/09/22 21:52:39;;;;;;;;;;;10.20;99.90;;;8.94;100.00;96544.78;10441230;28;2021;-76
2021/09/22 21:57:42;;;;;;;;;;;10.20;99.90;;;8.94;100.00;96545.59;10442944;28;2006;-75
2021/09/22 22:02:45;;;;;;;;;;;10.20;99.90;;;8.91;100.00;96543.41;10445482;28;2107;-76
2021/09/22 22:07:48;;;;;;;;;;;10.10;99.90;;;8.82;100.00;96544.06;10446336;28;2327;-76
2021/09/22 22:12:51;;;;;;;;;;;10.10;99.90;;;8.75;100.00;96543.41;10450073;28;1934;-75
2021/09/22 22:17:54;;;;;;;;;;;10.00;99.90;;;8.71;100.00;96540.38;10443680;28;2068;-76
2021/09/22 22:22:57;;;;;;;;;;;10.00;99.90;;;8.66;100.00;96541.13;10439718;28;1856;-74
2021/09/22 22:28:00;;;;;;;;;;;9.90;99.90;;;8.69;100.00;96549.75;10442652;28;2185;-76
2021/09/22 22:33:03;;;;;;;;;;;9.90;99.90;;;8.77;100.00;96536.72;10444037;28;2175;-76
2021/09/22 22:38:06;;;;;;;;;;;10.00;99.90;;;8.79;100.00;96531.16;10443762;28;1883;-76
2021/09/22 22:43:09;;;;;;;;;;;10.00;99.90;;;8.78;100.00;96535.72;10445223;28;2107;-75
2021/09/22 22:48:11;;;;;;;;;;;10.00;99.90;;;8.77;100.00;96542.09;10443805;28;2108;-76
2021/09/22 22:53:15;;;;;;;;;;;10.00;99.90;;;8.79;100.00;96531.16;10423646;28;1994;-76
2021/09/22 22:58:18;;;;;;;;;;;10.00;99.90;;;8.81;100.00;96534.41;10443955;28;2069;-76
2021/09/22 23:03:20;;;;;;;;;;;10.00;99.90;;;8.77;100.00;96522.53;10443890;28;1923;-75
2021/09/22 23:08:24;;;;;;;;;;;10.00;99.90;;;8.71;100.00;96523.50;10440480;28;2057;-74
2021/09/22 23:13:27;;;;;;;;;;;10.00;99.90;;;8.70;100.00;96517.31;10433484;28;1981;-75
2021/09/22 23:18:36;;;;;;;;;;;10.00;99.90;;;8.71;100.00;96510.91;10438490;28;2150;-75